sensor_id;sensor_type;location;lat;lon;timestamp;P1;durP1;ratioP1;P2;durP2;ratioP2
8803;SDS011;4438;50.890;4.726;2023-08-24T00:02:02;8.37;;;5.73;;
8803;SDS011;4438;50.890;4.726;2023-08-24T00:04:29;6.00;;;5.50;;
8803;SDS011;4438;50.890;4.726;2023-08-24T00:06:55;5.87;;;5.10;;
8803;SDS011;4438;50.890;4.726;2023-08-24T00:09:21;6.50;;;5.80;;
8803;SDS011;4438;50.890;4.726;2023-08-24T00:11:47;5.87;;;5.17;;
8803;SDS011;4438;50.890;4.726;2023-08-24T00:14:13;5.90;;;5.30;;
8803;SDS011;4438;50.890;4.726;2023-08-24T00:16:39;5.83;;;5.27;;
8803;SDS011;4438;50.890;4.726;2023-08-24T00:19:06;5.47;;;4.97;;
8803;SDS011;4438;50.890;4.726;2023-08-24T00:21:32;5.60;;;5.10;;
8803;SDS011;4438;50.890;4.726;2023-08-24T00:23:58;6.07;;;5.47;;
8803;SDS011;4438;50.890;4.726;2023-08-24T00:26:24;6.80;;;5.40;;
8803;SDS011;4438;50.890;4.726;2023-08-24T00:28:51;6.30;;;5.70;;
8803;SDS011;4438;50.890;4.726;2023-08-24T00:31:17;7.37;;;6.67;;
8803;SDS011;4438;50.890;4.726;2023-08-24T00:33:43;6.73;;;6.13;;
8803;SDS011;4438;50.890;4.726;2023-08-24T00:36:09;6.03;;;5.50;;
8803;SDS011;4438;50.890;4.726;2023-08-24T00:38:35;6.00;;;5.50;;
8803;SDS011;4438;50.890;4.726;2023-08-24T00:41:02;6.33;;;5.13;;
8803;SDS011;4438;50.890;4.726;2023-08-24T00:43:28;6.50;;;5.80;;
8803;SDS011;4438;50.890;4.726;2023-08-24T00:45:59;7.23;;;6.53;;
8803;SDS011;4438;50.890;4.726;2023-08-24T00:48:25;7.23;;;5.43;;
8803;SDS011;4438;50.890;4.726;2023-08-24T00:50:58;7.17;;;6.07;;
8803;SDS011;4438;50.890;4.726;2023-08-24T00:53:24;6.37;;;5.77;;
8803;SDS011;4438;50.890;4.726;2023-08-24T00:55:51;6.27;;;5.67;;
8803;SDS011;4438;50.890;4.726;2023-08-24T00:58:17;6.33;;;5.73;;
8803;SDS011;4438;50.890;4.726;2023-08-24T01:00:44;9.00;;;8.13;;
8803;SDS011;4438;50.890;4.726;2023-08-24T01:03:10;7.90;;;6.93;;
8803;SDS011;4438;50.890;4.726;2023-08-24T01:05:36;9.40;;;8.40;;
8803;SDS011;4438;50.890;4.726;2023-08-24T01:08:03;12.43;;;9.07;;
8803;SDS011;4438;50.890;4.726;2023-08-24T01:10:31;10.23;;;9.23;;
8803;SDS011;4438;50.890;4.726;2023-08-24T01:13:04;10.87;;;9.40;;
8803;SDS011;4438;50.890;4.726;2023-08-24T01:18:04;9.10;;;8.20;;
8803;SDS011;4438;50.890;4.726;2023-08-24T01:20:30;7.93;;;7.13;;
8803;SDS011;4438;50.890;4.726;2023-08-24T01:25:42;9.30;;;7.97;;
8803;SDS011;4438;50.890;4.726;2023-08-24T01:28:11;7.30;;;6.60;;
8803;SDS011;4438;50.890;4.726;2023-08-24T01:30:38;6.87;;;6.27;;
8803;SDS011;4438;50.890;4.726;2023-08-24T01:33:05;7.27;;;6.30;;
8803;SDS011;4438;50.890;4.726;2023-08-24T01:35:36;7.47;;;6.57;;
8803;SDS011;4438;50.890;4.726;2023-08-24T01:38:02;7.53;;;6.83;;
8803;SDS011;4438;50.890;4.726;2023-08-24T01:40:48;7.47;;;6.83;;
8803;SDS011;4438;50.890;4.726;2023-08-24T01:43:16;7.90;;;6.37;;
8803;SDS011;4438;50.890;4.726;2023-08-24T01:45:44;6.53;;;5.93;;
8803;SDS011;4438;50.890;4.726;2023-08-24T01:48:10;7.43;;;6.57;;
8803;SDS011;4438;50.890;4.726;2023-08-24T01:50:37;7.10;;;6.40;;
8803;SDS011;4438;50.890;4.726;2023-08-24T01:53:04;6.50;;;6.00;;
8803;SDS011;4438;50.890;4.726;2023-08-24T01:55:30;6.33;;;5.73;;
8803;SDS011;4438;50.890;4.726;2023-08-24T01:57:56;7.43;;;6.83;;
8803;SDS011;4438;50.890;4.726;2023-08-24T02:00:22;6.83;;;5.97;;
8803;SDS011;4438;50.890;4.726;2023-08-24T02:02:48;7.67;;;6.87;;
8803;SDS011;4438;50.890;4.726;2023-08-24T02:05:14;8.33;;;6.80;;
8803;SDS011;4438;50.890;4.726;2023-08-24T02:07:40;8.30;;;7.50;;
8803;SDS011;4438;50.890;4.726;2023-08-24T02:10:07;10.40;;;9.03;;
8803;SDS011;4438;50.890;4.726;2023-08-24T02:12:33;11.23;;;10.17;;
8803;SDS011;4438;50.890;4.726;2023-08-24T02:14:59;11.37;;;10.00;;
8803;SDS011;4438;50.890;4.726;2023-08-24T02:17:28;10.87;;;9.80;;
8803;SDS011;4438;50.890;4.726;2023-08-24T02:19:55;9.03;;;8.23;;
8803;SDS011;4438;50.890;4.726;2023-08-24T02:22:21;12.43;;;11.13;;
8803;SDS011;4438;50.890;4.726;2023-08-24T02:24:47;15.70;;;12.07;;
8803;SDS011;4438;50.890;4.726;2023-08-24T02:27:13;10.43;;;9.43;;
8803;SDS011;4438;50.890;4.726;2023-08-24T02:29:39;11.30;;;10.10;;
8803;SDS011;4438;50.890;4.726;2023-08-24T02:32:05;11.63;;;10.40;;
8803;SDS011;4438;50.890;4.726;2023-08-24T02:34:31;12.27;;;9.10;;
8803;SDS011;4438;50.890;4.726;2023-08-24T02:36:57;11.63;;;9.83;;
8803;SDS011;4438;50.890;4.726;2023-08-24T02:39:23;12.97;;;11.77;;
8803;SDS011;4438;50.890;4.726;2023-08-24T02:41:50;14.57;;;13.20;;
8803;SDS011;4438;50.890;4.726;2023-08-24T02:44:16;14.97;;;13.57;;
8803;SDS011;4438;50.890;4.726;2023-08-24T02:46:45;16.53;;;14.93;;
8803;SDS011;4438;50.890;4.726;2023-08-24T02:49:11;15.90;;;14.50;;
8803;SDS011;4438;50.890;4.726;2023-08-24T02:51:37;17.17;;;15.10;;
8803;SDS011;4438;50.890;4.726;2023-08-24T02:54:04;15.67;;;14.23;;
8803;SDS011;4438;50.890;4.726;2023-08-24T02:56:30;15.83;;;14.43;;
8803;SDS011;4438;50.890;4.726;2023-08-24T02:58:56;15.83;;;14.23;;
8803;SDS011;4438;50.890;4.726;2023-08-24T03:01:22;14.17;;;12.73;;
8803;SDS011;4438;50.890;4.726;2023-08-24T03:03:48;13.27;;;11.97;;
8803;SDS011;4438;50.890;4.726;2023-08-24T03:06:14;13.63;;;12.33;;
8803;SDS011;4438;50.890;4.726;2023-08-24T03:08:40;11.77;;;10.57;;
8803;SDS011;4438;50.890;4.726;2023-08-24T03:11:06;11.77;;;10.53;;
8803;SDS011;4438;50.890;4.726;2023-08-24T03:13:35;10.03;;;9.10;;
8803;SDS011;4438;50.890;4.726;2023-08-24T03:16:05;9.53;;;8.63;;
8803;SDS011;4438;50.890;4.726;2023-08-24T03:18:31;11.13;;;10.03;;
8803;SDS011;4438;50.890;4.726;2023-08-24T03:20:57;10.20;;;9.20;;
8803;SDS011;4438;50.890;4.726;2023-08-24T03:23:23;9.93;;;8.93;;
8803;SDS011;4438;50.890;4.726;2023-08-24T03:25:49;10.47;;;9.50;;
8803;SDS011;4438;50.890;4.726;2023-08-24T03:28:15;9.87;;;8.87;;
8803;SDS011;4438;50.890;4.726;2023-08-24T03:30:48;10.80;;;9.80;;
8803;SDS011;4438;50.890;4.726;2023-08-24T03:33:15;10.70;;;9.60;;
8803;SDS011;4438;50.890;4.726;2023-08-24T03:35:41;9.33;;;8.20;;
8803;SDS011;4438;50.890;4.726;2023-08-24T03:38:07;10.80;;;9.70;;
8803;SDS011;4438;50.890;4.726;2023-08-24T03:40:33;10.03;;;9.10;;
8803;SDS011;4438;50.890;4.726;2023-08-24T03:43:01;9.60;;;8.70;;
8803;SDS011;4438;50.890;4.726;2023-08-24T03:45:27;8.77;;;7.87;;
8803;SDS011;4438;50.890;4.726;2023-08-24T03:47:53;10.27;;;8.97;;
8803;SDS011;4438;50.890;4.726;2023-08-24T03:50:19;8.63;;;7.83;;
8803;SDS011;4438;50.890;4.726;2023-08-24T03:52:47;9.53;;;8.53;;
8803;SDS011;4438;50.890;4.726;2023-08-24T03:55:14;9.40;;;8.40;;
8803;SDS011;4438;50.890;4.726;2023-08-24T03:57:40;8.87;;;8.03;;
8803;SDS011;4438;50.890;4.726;2023-08-24T04:00:06;8.57;;;7.80;;
8803;SDS011;4438;50.890;4.726;2023-08-24T04:02:37;9.03;;;8.23;;
8803;SDS011;4438;50.890;4.726;2023-08-24T04:05:03;9.27;;;8.37;;
8803;SDS011;4438;50.890;4.726;2023-08-24T04:07:29;9.37;;;8.43;;
8803;SDS011;4438;50.890;4.726;2023-08-24T04:09:56;8.90;;;8.10;;
8803;SDS011;4438;50.890;4.726;2023-08-24T04:12:22;8.50;;;7.80;;
8803;SDS011;4438;50.890;4.726;2023-08-24T04:14:51;9.47;;;8.43;;
8803;SDS011;4438;50.890;4.726;2023-08-24T04:17:17;8.27;;;7.47;;
8803;SDS011;4438;50.890;4.726;2023-08-24T04:19:43;10.13;;;8.73;;
8803;SDS011;4438;50.890;4.726;2023-08-24T04:22:09;10.30;;;9.30;;
8803;SDS011;4438;50.890;4.726;2023-08-24T04:24:35;8.50;;;7.60;;
8803;SDS011;4438;50.890;4.726;2023-08-24T04:27:01;8.57;;;7.73;;
8803;SDS011;4438;50.890;4.726;2023-08-24T04:29:27;8.30;;;7.57;;
8803;SDS011;4438;50.890;4.726;2023-08-24T04:31:53;8.30;;;7.60;;
8803;SDS011;4438;50.890;4.726;2023-08-24T04:34:20;8.57;;;7.70;;
8803;SDS011;4438;50.890;4.726;2023-08-24T04:36:46;8.53;;;7.37;;
8803;SDS011;4438;50.890;4.726;2023-08-24T04:39:12;7.77;;;7.07;;
8803;SDS011;4438;50.890;4.726;2023-08-24T04:41:38;8.33;;;7.53;;
8803;SDS011;4438;50.890;4.726;2023-08-24T04:44:04;8.73;;;7.83;;
8803;SDS011;4438;50.890;4.726;2023-08-24T04:46:33;8.40;;;7.50;;
8803;SDS011;4438;50.890;4.726;2023-08-24T04:48:59;8.30;;;7.53;;
8803;SDS011;4438;50.890;4.726;2023-08-24T04:51:25;8.33;;;7.50;;
8803;SDS011;4438;50.890;4.726;2023-08-24T04:53:53;8.23;;;7.43;;
8803;SDS011;4438;50.890;4.726;2023-08-24T04:56:19;8.10;;;7.30;;
8803;SDS011;4438;50.890;4.726;2023-08-24T05:01:21;10.17;;;9.17;;
8803;SDS011;4438;50.890;4.726;2023-08-24T05:03:48;8.10;;;7.37;;
8803;SDS011;4438;50.890;4.726;2023-08-24T05:06:14;8.97;;;8.07;;
8803;SDS011;4438;50.890;4.726;2023-08-24T05:08:40;7.77;;;6.97;;
8803;SDS011;4438;50.890;4.726;2023-08-24T05:11:39;8.93;;;7.67;;
8803;SDS011;4438;50.890;4.726;2023-08-24T05:13:58;7.20;;;6.60;;
8803;SDS011;4438;50.890;4.726;2023-08-24T05:16:24;8.40;;;7.00;;
8803;SDS011;4438;50.890;4.726;2023-08-24T05:18:52;7.67;;;6.93;;
8803;SDS011;4438;50.890;4.726;2023-08-24T05:21:18;8.00;;;7.20;;
8803;SDS011;4438;50.890;4.726;2023-08-24T05:23:45;9.43;;;8.50;;
8803;SDS011;4438;50.890;4.726;2023-08-24T05:26:11;8.03;;;7.30;;
8803;SDS011;4438;50.890;4.726;2023-08-24T05:28:37;8.30;;;7.40;;
8803;SDS011;4438;50.890;4.726;2023-08-24T05:31:03;8.57;;;7.77;;
8803;SDS011;4438;50.890;4.726;2023-08-24T05:33:29;8.13;;;7.33;;
8803;SDS011;4438;50.890;4.726;2023-08-24T05:35:56;9.07;;;7.90;;
8803;SDS011;4438;50.890;4.726;2023-08-24T05:38:23;9.43;;;8.43;;
8803;SDS011;4438;50.890;4.726;2023-08-24T05:40:49;9.27;;;8.33;;
8803;SDS011;4438;50.890;4.726;2023-08-24T05:43:15;7.57;;;6.90;;
8803;SDS011;4438;50.890;4.726;2023-08-24T05:45:42;8.73;;;7.80;;
8803;SDS011;4438;50.890;4.726;2023-08-24T05:48:10;11.03;;;7.20;;
8803;SDS011;4438;50.890;4.726;2023-08-24T05:50:36;7.90;;;7.20;;
8803;SDS011;4438;50.890;4.726;2023-08-24T05:53:03;7.03;;;6.43;;
8803;SDS011;4438;50.890;4.726;2023-08-24T05:55:29;8.33;;;7.53;;
8803;SDS011;4438;50.890;4.726;2023-08-24T05:57:55;7.97;;;7.17;;
8803;SDS011;4438;50.890;4.726;2023-08-24T06:00:21;7.47;;;6.73;;
8803;SDS011;4438;50.890;4.726;2023-08-24T06:02:48;9.13;;;8.17;;
8803;SDS011;4438;50.890;4.726;2023-08-24T06:05:14;8.50;;;7.60;;
8803;SDS011;4438;50.890;4.726;2023-08-24T06:07:42;7.80;;;7.00;;
8803;SDS011;4438;50.890;4.726;2023-08-24T06:10:08;8.33;;;7.63;;
8803;SDS011;4438;50.890;4.726;2023-08-24T06:12:34;9.47;;;8.50;;
8803;SDS011;4438;50.890;4.726;2023-08-24T06:15:00;8.93;;;8.03;;
8803;SDS011;4438;50.890;4.726;2023-08-24T06:17:29;7.63;;;6.90;;
8803;SDS011;4438;50.890;4.726;2023-08-24T06:19:55;11.17;;;8.60;;
8803;SDS011;4438;50.890;4.726;2023-08-24T06:22:21;10.57;;;9.57;;
8803;SDS011;4438;50.890;4.726;2023-08-24T06:24:47;10.00;;;9.10;;
8803;SDS011;4438;50.890;4.726;2023-08-24T06:27:14;9.03;;;8.13;;
8803;SDS011;4438;50.890;4.726;2023-08-24T06:29:43;8.57;;;7.77;;
8803;SDS011;4438;50.890;4.726;2023-08-24T06:32:09;8.77;;;7.90;;
8803;SDS011;4438;50.890;4.726;2023-08-24T06:34:35;8.37;;;7.10;;
8803;SDS011;4438;50.890;4.726;2023-08-24T06:37:01;7.80;;;7.00;;
8803;SDS011;4438;50.890;4.726;2023-08-24T06:39:28;8.20;;;6.67;;
8803;SDS011;4438;50.890;4.726;2023-08-24T06:41:56;10.20;;;7.93;;
8803;SDS011;4438;50.890;4.726;2023-08-24T06:44:22;8.37;;;6.83;;
8803;SDS011;4438;50.890;4.726;2023-08-24T06:46:48;8.57;;;7.70;;
8803;SDS011;4438;50.890;4.726;2023-08-24T06:49:14;10.40;;;7.70;;
8803;SDS011;4438;50.890;4.726;2023-08-24T06:51:40;11.30;;;8.57;;
8803;SDS011;4438;50.890;4.726;2023-08-24T06:54:06;8.83;;;7.93;;
8803;SDS011;4438;50.890;4.726;2023-08-24T06:56:32;8.87;;;7.50;;
8803;SDS011;4438;50.890;4.726;2023-08-24T06:58:58;10.07;;;7.70;;
8803;SDS011;4438;50.890;4.726;2023-08-24T07:01:24;8.43;;;7.50;;
8803;SDS011;4438;50.890;4.726;2023-08-24T07:03:51;7.80;;;6.60;;
8803;SDS011;4438;50.890;4.726;2023-08-24T07:06:17;7.80;;;7.00;;
8803;SDS011;4438;50.890;4.726;2023-08-24T07:08:43;10.97;;;7.20;;
8803;SDS011;4438;50.890;4.726;2023-08-24T07:11:09;8.20;;;7.33;;
8803;SDS011;4438;50.890;4.726;2023-08-24T07:13:35;9.23;;;7.03;;
8803;SDS011;4438;50.890;4.726;2023-08-24T07:16:01;8.10;;;6.40;;
8803;SDS011;4438;50.890;4.726;2023-08-24T07:18:28;8.77;;;7.33;;
8803;SDS011;4438;50.890;4.726;2023-08-24T07:20:54;8.90;;;6.70;;
8803;SDS011;4438;50.890;4.726;2023-08-24T07:23:20;6.50;;;5.90;;
8803;SDS011;4438;50.890;4.726;2023-08-24T07:25:46;7.10;;;6.40;;
8803;SDS011;4438;50.890;4.726;2023-08-24T07:28:13;7.30;;;6.60;;
8803;SDS011;4438;50.890;4.726;2023-08-24T07:30:39;8.10;;;6.83;;
8803;SDS011;4438;50.890;4.726;2023-08-24T07:33:05;8.63;;;6.70;;
8803;SDS011;4438;50.890;4.726;2023-08-24T07:35:31;7.40;;;6.30;;
8803;SDS011;4438;50.890;4.726;2023-08-24T07:37:58;8.93;;;6.60;;
8803;SDS011;4438;50.890;4.726;2023-08-24T07:40:24;7.77;;;6.57;;
8803;SDS011;4438;50.890;4.726;2023-08-24T07:42:51;7.97;;;6.57;;
8803;SDS011;4438;50.890;4.726;2023-08-24T07:45:21;9.03;;;6.73;;
8803;SDS011;4438;50.890;4.726;2023-08-24T07:47:51;7.10;;;6.40;;
8803;SDS011;4438;50.890;4.726;2023-08-24T07:50:17;6.70;;;5.90;;
8803;SDS011;4438;50.890;4.726;2023-08-24T07:52:43;8.30;;;6.70;;
8803;SDS011;4438;50.890;4.726;2023-08-24T07:55:09;7.20;;;6.50;;
8803;SDS011;4438;50.890;4.726;2023-08-24T07:57:39;7.00;;;6.00;;
8803;SDS011;4438;50.890;4.726;2023-08-24T08:00:05;7.67;;;6.73;;
8803;SDS011;4438;50.890;4.726;2023-08-24T08:02:32;7.73;;;6.93;;
8803;SDS011;4438;50.890;4.726;2023-08-24T08:04:59;6.70;;;6.00;;
8803;SDS011;4438;50.890;4.726;2023-08-24T08:07:28;7.20;;;6.50;;
8803;SDS011;4438;50.890;4.726;2023-08-24T08:09:54;7.50;;;6.80;;
8803;SDS011;4438;50.890;4.726;2023-08-24T08:12:21;7.80;;;6.93;;
8803;SDS011;4438;50.890;4.726;2023-08-24T08:14:47;7.67;;;6.90;;
8803;SDS011;4438;50.890;4.726;2023-08-24T08:17:13;8.63;;;7.73;;
8803;SDS011;4438;50.890;4.726;2023-08-24T08:19:39;8.37;;;7.50;;
8803;SDS011;4438;50.890;4.726;2023-08-24T08:22:06;7.07;;;6.43;;
8803;SDS011;4438;50.890;4.726;2023-08-24T08:24:32;6.83;;;6.13;;
8803;SDS011;4438;50.890;4.726;2023-08-24T08:26:58;7.00;;;6.30;;
8803;SDS011;4438;50.890;4.726;2023-08-24T08:29:24;7.60;;;6.77;;
8803;SDS011;4438;50.890;4.726;2023-08-24T08:31:50;8.50;;;7.60;;
8803;SDS011;4438;50.890;4.726;2023-08-24T08:34:17;9.03;;;7.10;;
8803;SDS011;4438;50.890;4.726;2023-08-24T08:36:43;8.73;;;7.80;;
8803;SDS011;4438;50.890;4.726;2023-08-24T08:39:09;8.53;;;7.37;;
8803;SDS011;4438;50.890;4.726;2023-08-24T08:41:39;8.37;;;6.33;;
8803;SDS011;4438;50.890;4.726;2023-08-24T08:44:07;7.70;;;6.43;;
8803;SDS011;4438;50.890;4.726;2023-08-24T08:46:35;8.57;;;7.33;;
8803;SDS011;4438;50.890;4.726;2023-08-24T08:49:01;7.03;;;6.00;;
8803;SDS011;4438;50.890;4.726;2023-08-24T08:51:28;7.17;;;6.47;;
8803;SDS011;4438;50.890;4.726;2023-08-24T08:53:55;6.47;;;5.80;;
8803;SDS011;4438;50.890;4.726;2023-08-24T08:56:21;6.33;;;5.73;;
8803;SDS011;4438;50.890;4.726;2023-08-24T08:58:48;6.23;;;5.13;;
8803;SDS011;4438;50.890;4.726;2023-08-24T09:01:14;6.00;;;5.20;;
8803;SDS011;4438;50.890;4.726;2023-08-24T09:03:40;7.50;;;5.80;;
8803;SDS011;4438;50.890;4.726;2023-08-24T09:06:07;5.97;;;5.23;;
8803;SDS011;4438;50.890;4.726;2023-08-24T09:08:34;6.60;;;5.60;;
8803;SDS011;4438;50.890;4.726;2023-08-24T09:11:00;5.87;;;5.10;;
8803;SDS011;4438;50.890;4.726;2023-08-24T09:13:28;7.37;;;5.50;;
8803;SDS011;4438;50.890;4.726;2023-08-24T09:15:54;7.40;;;5.27;;
8803;SDS011;4438;50.890;4.726;2023-08-24T09:18:20;5.67;;;5.10;;
8803;SDS011;4438;50.890;4.726;2023-08-24T09:20:47;5.13;;;4.63;;
8803;SDS011;4438;50.890;4.726;2023-08-24T09:23:17;5.53;;;4.90;;
8803;SDS011;4438;50.890;4.726;2023-08-24T09:25:46;4.83;;;4.40;;
8803;SDS011;4438;50.890;4.726;2023-08-24T09:28:12;6.27;;;5.00;;
8803;SDS011;4438;50.890;4.726;2023-08-24T09:30:38;7.93;;;5.13;;
8803;SDS011;4438;50.890;4.726;2023-08-24T09:33:09;6.23;;;4.57;;
8803;SDS011;4438;50.890;4.726;2023-08-24T09:35:35;6.87;;;4.67;;
8803;SDS011;4438;50.890;4.726;2023-08-24T09:38:18;6.43;;;4.87;;
8803;SDS011;4438;50.890;4.726;2023-08-24T09:40:45;7.83;;;5.30;;
8803;SDS011;4438;50.890;4.726;2023-08-24T09:43:13;5.23;;;4.57;;
8803;SDS011;4438;50.890;4.726;2023-08-24T09:45:47;6.50;;;5.10;;
8803;SDS011;4438;50.890;4.726;2023-08-24T09:48:14;6.17;;;5.07;;
8803;SDS011;4438;50.890;4.726;2023-08-24T09:50:40;6.73;;;5.60;;
8803;SDS011;4438;50.890;4.726;2023-08-24T09:53:07;8.23;;;6.07;;
8803;SDS011;4438;50.890;4.726;2023-08-24T09:55:34;5.87;;;5.00;;
8803;SDS011;4438;50.890;4.726;2023-08-24T09:58:02;10.07;;;6.03;;
8803;SDS011;4438;50.890;4.726;2023-08-24T10:00:29;8.43;;;5.80;;
8803;SDS011;4438;50.890;4.726;2023-08-24T10:02:55;8.10;;;5.90;;
8803;SDS011;4438;50.890;4.726;2023-08-24T10:05:25;9.77;;;5.83;;
8803;SDS011;4438;50.890;4.726;2023-08-24T10:07:55;9.20;;;6.33;;
8803;SDS011;4438;50.890;4.726;2023-08-24T10:10:22;7.00;;;6.07;;
8803;SDS011;4438;50.890;4.726;2023-08-24T10:12:56;8.50;;;6.90;;
8803;SDS011;4438;50.890;4.726;2023-08-24T10:15:24;9.43;;;7.17;;
8803;SDS011;4438;50.890;4.726;2023-08-24T10:17:50;9.27;;;7.00;;
8803;SDS011;4438;50.890;4.726;2023-08-24T10:20:18;8.00;;;7.20;;
8803;SDS011;4438;50.890;4.726;2023-08-24T10:22:45;8.90;;;7.43;;
8803;SDS011;4438;50.890;4.726;2023-08-24T10:25:12;9.13;;;8.23;;
8803;SDS011;4438;50.890;4.726;2023-08-24T10:27:39;10.90;;;8.00;;
8803;SDS011;4438;50.890;4.726;2023-08-24T10:30:12;8.90;;;8.00;;
8803;SDS011;4438;50.890;4.726;2023-08-24T10:32:38;8.37;;;7.57;;
8803;SDS011;4438;50.890;4.726;2023-08-24T10:35:05;9.07;;;7.73;;
8803;SDS011;4438;50.890;4.726;2023-08-24T10:37:31;11.90;;;8.57;;
8803;SDS011;4438;50.890;4.726;2023-08-24T10:39:59;10.77;;;8.67;;
8803;SDS011;4438;50.890;4.726;2023-08-24T10:42:26;13.47;;;9.97;;
8803;SDS011;4438;50.890;4.726;2023-08-24T10:44:52;11.40;;;9.90;;
8803;SDS011;4438;50.890;4.726;2023-08-24T10:47:22;11.27;;;10.20;;
8803;SDS011;4438;50.890;4.726;2023-08-24T10:52:21;11.40;;;10.40;;
8803;SDS011;4438;50.890;4.726;2023-08-24T10:54:48;11.27;;;10.17;;
8803;SDS011;4438;50.890;4.726;2023-08-24T10:57:57;12.17;;;10.97;;
8803;SDS011;4438;50.890;4.726;2023-08-24T11:00:04;11.40;;;10.30;;
8803;SDS011;4438;50.890;4.726;2023-08-24T11:02:40;12.00;;;10.80;;
8803;SDS011;4438;50.890;4.726;2023-08-24T11:05:15;11.43;;;10.37;;
8803;SDS011;4438;50.890;4.726;2023-08-24T11:07:48;11.77;;;10.77;;
8803;SDS011;4438;50.890;4.726;2023-08-24T11:10:15;11.83;;;10.67;;
8803;SDS011;4438;50.890;4.726;2023-08-24T11:15:34;10.90;;;9.90;;
8803;SDS011;4438;50.890;4.726;2023-08-24T11:20:51;12.13;;;10.87;;
8803;SDS011;4438;50.890;4.726;2023-08-24T11:23:18;12.30;;;10.87;;
8803;SDS011;4438;50.890;4.726;2023-08-24T11:25:45;11.23;;;10.07;;
8803;SDS011;4438;50.890;4.726;2023-08-24T11:28:11;10.80;;;9.70;;
8803;SDS011;4438;50.890;4.726;2023-08-24T11:30:37;10.47;;;9.57;;
8803;SDS011;4438;50.890;4.726;2023-08-24T11:33:03;9.90;;;9.00;;
8803;SDS011;4438;50.890;4.726;2023-08-24T11:35:29;9.70;;;8.70;;
8803;SDS011;4438;50.890;4.726;2023-08-24T11:38:01;10.33;;;8.60;;
8803;SDS011;4438;50.890;4.726;2023-08-24T11:40:27;8.90;;;8.00;;
8803;SDS011;4438;50.890;4.726;2023-08-24T11:42:54;8.80;;;8.00;;
8803;SDS011;4438;50.890;4.726;2023-08-24T11:45:20;9.53;;;8.63;;
8803;SDS011;4438;50.890;4.726;2023-08-24T11:47:47;8.93;;;8.13;;
8803;SDS011;4438;50.890;4.726;2023-08-24T11:50:13;9.40;;;8.60;;
8803;SDS011;4438;50.890;4.726;2023-08-24T11:52:40;8.50;;;7.60;;
8803;SDS011;4438;50.890;4.726;2023-08-24T11:55:06;8.87;;;8.00;;
8803;SDS011;4438;50.890;4.726;2023-08-24T11:57:34;7.33;;;6.70;;
8803;SDS011;4438;50.890;4.726;2023-08-24T12:00:00;8.50;;;7.60;;
8803;SDS011;4438;50.890;4.726;2023-08-24T12:02:27;9.97;;;8.90;;
8803;SDS011;4438;50.890;4.726;2023-08-24T12:04:53;8.77;;;7.97;;
8803;SDS011;4438;50.890;4.726;2023-08-24T12:07:20;10.40;;;9.27;;
8803;SDS011;4438;50.890;4.726;2023-08-24T12:09:46;11.23;;;8.10;;
8803;SDS011;4438;50.890;4.726;2023-08-24T12:12:13;8.10;;;7.40;;
8803;SDS011;4438;50.890;4.726;2023-08-24T12:14:43;7.57;;;6.90;;
8803;SDS011;4438;50.890;4.726;2023-08-24T12:17:09;8.63;;;7.47;;
8803;SDS011;4438;50.890;4.726;2023-08-24T12:19:35;8.23;;;7.43;;
8803;SDS011;4438;50.890;4.726;2023-08-24T12:22:02;7.67;;;6.97;;
8803;SDS011;4438;50.890;4.726;2023-08-24T12:24:29;8.37;;;7.60;;
8803;SDS011;4438;50.890;4.726;2023-08-24T12:26:55;8.17;;;7.37;;
8803;SDS011;4438;50.890;4.726;2023-08-24T12:29:26;8.67;;;7.87;;
8803;SDS011;4438;50.890;4.726;2023-08-24T12:31:56;14.33;;;9.40;;
8803;SDS011;4438;50.890;4.726;2023-08-24T12:34:23;16.33;;;9.07;;
8803;SDS011;4438;50.890;4.726;2023-08-24T12:36:49;12.03;;;8.47;;
8803;SDS011;4438;50.890;4.726;2023-08-24T12:39:16;9.73;;;8.83;;
8803;SDS011;4438;50.890;4.726;2023-08-24T12:41:42;23.87;;;11.67;;
8803;SDS011;4438;50.890;4.726;2023-08-24T12:44:08;37.57;;;14.87;;
8803;SDS011;4438;50.890;4.726;2023-08-24T12:46:34;31.97;;;12.00;;
8803;SDS011;4438;50.890;4.726;2023-08-24T12:49:01;13.77;;;9.83;;
8803;SDS011;4438;50.890;4.726;2023-08-24T12:51:27;10.67;;;8.80;;
8803;SDS011;4438;50.890;4.726;2023-08-24T12:53:53;10.37;;;9.47;;
8803;SDS011;4438;50.890;4.726;2023-08-24T12:56:19;9.63;;;8.60;;
8803;SDS011;4438;50.890;4.726;2023-08-24T12:58:45;8.57;;;7.77;;
8803;SDS011;4438;50.890;4.726;2023-08-24T13:01:11;7.70;;;6.90;;
8803;SDS011;4438;50.890;4.726;2023-08-24T13:03:37;8.13;;;7.43;;
8803;SDS011;4438;50.890;4.726;2023-08-24T13:06:05;7.60;;;6.90;;
8803;SDS011;4438;50.890;4.726;2023-08-24T13:08:31;12.23;;;7.47;;
8803;SDS011;4438;50.890;4.726;2023-08-24T13:10:57;8.73;;;7.13;;
8803;SDS011;4438;50.890;4.726;2023-08-24T13:13:23;11.33;;;7.17;;
8803;SDS011;4438;50.890;4.726;2023-08-24T13:15:49;8.30;;;6.57;;
8803;SDS011;4438;50.890;4.726;2023-08-24T13:18:16;9.03;;;6.40;;
8803;SDS011;4438;50.890;4.726;2023-08-24T13:20:42;6.03;;;5.37;;
8803;SDS011;4438;50.890;4.726;2023-08-24T13:23:08;5.33;;;4.83;;
8803;SDS011;4438;50.890;4.726;2023-08-24T13:25:34;4.73;;;4.33;;
8803;SDS011;4438;50.890;4.726;2023-08-24T13:28:00;4.83;;;4.27;;
8803;SDS011;4438;50.890;4.726;2023-08-24T13:30:26;6.13;;;5.00;;
8803;SDS011;4438;50.890;4.726;2023-08-24T13:32:53;5.00;;;4.50;;
8803;SDS011;4438;50.890;4.726;2023-08-24T13:35:19;5.00;;;4.13;;
8803;SDS011;4438;50.890;4.726;2023-08-24T13:37:46;6.73;;;4.30;;
8803;SDS011;4438;50.890;4.726;2023-08-24T13:40:13;4.97;;;4.13;;
8803;SDS011;4438;50.890;4.726;2023-08-24T13:42:39;4.83;;;4.43;;
8803;SDS011;4438;50.890;4.726;2023-08-24T13:45:05;5.13;;;4.53;;
8803;SDS011;4438;50.890;4.726;2023-08-24T13:47:31;6.20;;;4.43;;
8803;SDS011;4438;50.890;4.726;2023-08-24T13:49:57;6.57;;;4.37;;
8803;SDS011;4438;50.890;4.726;2023-08-24T13:52:24;4.93;;;4.10;;
8803;SDS011;4438;50.890;4.726;2023-08-24T13:54:50;5.37;;;4.00;;
8803;SDS011;4438;50.890;4.726;2023-08-24T13:57:16;5.10;;;3.70;;
8803;SDS011;4438;50.890;4.726;2023-08-24T13:59:42;5.47;;;3.90;;
8803;SDS011;4438;50.890;4.726;2023-08-24T14:02:08;7.63;;;4.43;;
8803;SDS011;4438;50.890;4.726;2023-08-24T14:04:36;8.50;;;4.20;;
8803;SDS011;4438;50.890;4.726;2023-08-24T14:07:02;5.37;;;4.03;;
8803;SDS011;4438;50.890;4.726;2023-08-24T14:09:29;6.43;;;3.47;;
8803;SDS011;4438;50.890;4.726;2023-08-24T14:11:56;5.33;;;3.57;;
8803;SDS011;4438;50.890;4.726;2023-08-24T14:14:22;4.43;;;3.27;;
8803;SDS011;4438;50.890;4.726;2023-08-24T14:16:53;3.60;;;3.30;;
8803;SDS011;4438;50.890;4.726;2023-08-24T14:19:19;5.33;;;3.40;;
8803;SDS011;4438;50.890;4.726;2023-08-24T14:21:46;30.40;;;7.50;;
8803;SDS011;4438;50.890;4.726;2023-08-24T14:24:12;15.80;;;4.63;;
8803;SDS011;4438;50.890;4.726;2023-08-24T14:26:38;9.43;;;3.47;;
8803;SDS011;4438;50.890;4.726;2023-08-24T14:29:10;5.80;;;3.27;;
8803;SDS011;4438;50.890;4.726;2023-08-24T14:31:36;9.83;;;3.67;;
8803;SDS011;4438;50.890;4.726;2023-08-24T14:34:02;7.27;;;2.90;;
8803;SDS011;4438;50.890;4.726;2023-08-24T14:36:29;6.00;;;3.27;;
8803;SDS011;4438;50.890;4.726;2023-08-24T14:38:56;3.80;;;2.90;;
8803;SDS011;4438;50.890;4.726;2023-08-24T14:41:22;4.17;;;2.83;;
8803;SDS011;4438;50.890;4.726;2023-08-24T14:43:48;6.40;;;3.43;;
8803;SDS011;4438;50.890;4.726;2023-08-24T14:46:14;6.20;;;3.07;;
8803;SDS011;4438;50.890;4.726;2023-08-24T14:48:40;3.57;;;2.67;;
8803;SDS011;4438;50.890;4.726;2023-08-24T14:51:06;3.20;;;2.40;;
8803;SDS011;4438;50.890;4.726;2023-08-24T14:53:33;4.50;;;2.70;;
8803;SDS011;4438;50.890;4.726;2023-08-24T14:55:59;5.40;;;2.80;;
8803;SDS011;4438;50.890;4.726;2023-08-24T14:58:25;3.60;;;2.67;;
8803;SDS011;4438;50.890;4.726;2023-08-24T15:00:53;3.47;;;2.53;;
8803;SDS011;4438;50.890;4.726;2023-08-24T15:03:23;3.83;;;2.77;;
8803;SDS011;4438;50.890;4.726;2023-08-24T15:05:57;3.20;;;2.30;;
8803;SDS011;4438;50.890;4.726;2023-08-24T15:08:23;3.57;;;2.77;;
8803;SDS011;4438;50.890;4.726;2023-08-24T15:10:49;3.00;;;2.40;;
8803;SDS011;4438;50.890;4.726;2023-08-24T15:13:15;2.67;;;2.30;;
8803;SDS011;4438;50.890;4.726;2023-08-24T15:15:41;2.57;;;2.20;;
8803;SDS011;4438;50.890;4.726;2023-08-24T15:18:09;3.10;;;2.47;;
8803;SDS011;4438;50.890;4.726;2023-08-24T15:20:35;3.13;;;2.57;;
8803;SDS011;4438;50.890;4.726;2023-08-24T15:23:01;4.27;;;2.33;;
8803;SDS011;4438;50.890;4.726;2023-08-24T15:25:27;3.20;;;2.47;;